Terminal Aerodrome Forecast
Issued by NWS

Current Version | Previous Version | Graphics & Text | Print | Product List | Glossary On
Versions: 1 2 3 4 5 6 7 8 9 10 11 12 13 14 15 16 17 18 19 20
251
FTUS41 KILN 091410 AAA
TAFLUK
TAF AMD
KLUK 091410Z 0914/1012 25010KT 5SM -SN OVC028
     FM091700 28012G18KT 5SM -SHSN BKN018 OVC025
     FM092300 28010KT P6SM VCSH OVC025=

USA.gov is the U.S. government's official web portal to all federal, state and local government web resources and services.